createdAt,value
2023-02-27T00:02:43.425Z,100510.27
2023-02-27T00:07:47.036Z,100517.27
2023-02-27T00:12:50.858Z,100526.52
2023-02-27T00:17:54.269Z,100532.65
2023-02-27T00:22:57.888Z,100532.29
2023-02-27T00:28:01.916Z,100537.34
2023-02-27T00:33:05.735Z,100539.52
2023-02-27T00:38:09.251Z,100544.48
2023-02-27T00:43:12.766Z,100543.86
2023-02-27T00:48:16.999Z,100549.29
2023-02-27T00:53:20.716Z,100554.32
2023-02-27T00:58:24.337Z,100559.44
2023-02-27T01:03:27.855Z,100566.79
2023-02-27T01:08:31.475Z,100568.65
2023-02-27T01:13:35.100Z,100574.38
2023-02-27T01:18:38.811Z,100580.81
2023-02-27T01:23:42.231Z,100583.45
2023-02-27T01:28:45.746Z,100583.67
2023-02-27T01:33:49.467Z,100575.30
2023-02-27T01:38:53.095Z,100587.70
2023-02-27T01:44:03.071Z,100598.23
2023-02-27T01:49:13.323Z,100598.31
2023-02-27T01:54:21.040Z,100604.37
2023-02-27T01:59:24.959Z,100619.16
2023-02-27T02:04:33.725Z,100619.55
2023-02-27T02:09:41.016Z,100626.98
2023-02-27T02:14:45.039Z,100629.92
2023-02-27T02:20:10.359Z,100634.42
2023-02-27T02:25:46.230Z,100637.91
2023-02-27T02:31:08.136Z,100641.77
2023-02-27T02:36:30.226Z,100642.23
2023-02-27T02:41:52.174Z,100651.92
2023-02-27T02:47:18.127Z,100661.55
2023-02-27T02:52:59.090Z,100668.73
2023-02-27T02:58:12.566Z,100673.31
2023-02-27T03:03:37.474Z,100677.41
2023-02-27T03:08:50.004Z,100681.45
2023-02-27T03:14:01.403Z,100684.63
2023-02-27T03:19:17.206Z,100690.52
2023-02-27T03:24:33.007Z,100702.08
2023-02-27T03:30:01.346Z,100704.78
2023-02-27T03:35:07.586Z,100700.66
2023-02-27T03:40:59.632Z,100700.13
2023-02-27T03:46:17.840Z,100705.23
2023-02-27T03:51:23.903Z,100714.69
2023-02-27T03:56:38.038Z,100720.67
2023-02-27T04:01:44.124Z,100725.16
2023-02-27T04:07:24.887Z,100728.97
2023-02-27T04:12:50.025Z,100734.64
2023-02-27T04:18:12.286Z,100737.81
2023-02-27T04:23:47.437Z,100739.35
2023-02-27T04:28:59.960Z,100746.94
2023-02-27T04:34:23.855Z,100757.80
2023-02-27T04:39:46.629Z,100759.65
2023-02-27T04:44:52.416Z,100766.75
2023-02-27T04:50:19.872Z,100773.41
2023-02-27T04:55:46.734Z,100779.98
2023-02-27T05:01:01.526Z,100784.38
2023-02-27T05:06:05.439Z,100789.14
2023-02-27T05:11:29.352Z,100793.30
2023-02-27T05:16:45.758Z,100799.10
2023-02-27T05:21:52.849Z,100804.73
2023-02-27T05:26:59.245Z,100814.54
2023-02-27T05:32:06.075Z,100818.84
2023-02-27T05:37:18.447Z,100826.56
2023-02-27T05:42:36.918Z,100831.40
2023-02-27T05:47:47.899Z,100837.95
2023-02-27T05:52:54.562Z,100845.04
2023-02-27T05:58:25.263Z,100853.58
2023-02-27T06:03:31.692Z,100864.50
2023-02-27T06:08:36.168Z,100863.76
2023-02-27T06:13:41.804Z,100865.95
2023-02-27T06:18:45.867Z,100876.64
2023-02-27T06:23:50.101Z,100880.83
2023-02-27T06:28:53.402Z,100884.77
2023-02-27T06:33:57.026Z,100889.22
2023-02-27T06:39:00.738Z,100894.36
2023-02-27T06:44:04.354Z,100897.03
2023-02-27T06:49:07.767Z,100906.02
2023-02-27T06:54:11.283Z,100911.36
2023-02-27T06:59:15.105Z,100919.02
2023-02-27T07:04:18.582Z,100922.30
2023-02-27T07:09:23.466Z,100926.98
2023-02-27T07:14:26.990Z,100931.73
2023-02-27T07:19:32.043Z,100929.55
2023-02-27T07:24:36.899Z,100936.08
2023-02-27T07:29:40.510Z,100940.26
2023-02-27T07:34:44.145Z,100944.19
2023-02-27T07:39:47.736Z,100953.01
2023-02-27T07:44:51.150Z,100957.48
2023-02-27T07:49:55.386Z,100964.95
2023-02-27T07:54:59.002Z,100966.90
2023-02-27T08:00:06.460Z,100965.46
2023-02-27T08:05:10.337Z,100974.79
2023-02-27T08:10:16.514Z,100979.98
2023-02-27T08:15:20.643Z,100984.28
2023-02-27T08:20:24.797Z,100980.64
2023-02-27T08:25:28.305Z,100990.73
2023-02-27T08:30:32.183Z,100989.63
2023-02-27T08:35:36.282Z,100999.30
2023-02-27T08:40:39.959Z,101008.52
2023-02-27T08:45:43.706Z,101013.49
2023-02-27T08:50:47.808Z,101015.27
2023-02-27T08:55:52.147Z,101010.09
2023-02-27T09:00:55.663Z,101013.69
2023-02-27T09:05:59.300Z,101019.32
2023-02-27T09:11:03.336Z,101022.11
2023-02-27T09:16:07.578Z,101028.39
2023-02-27T09:21:11.050Z,101031.02
2023-02-27T09:26:14.671Z,101041.99
2023-02-27T09:31:18.601Z,101036.94
2023-02-27T09:36:22.006Z,101037.20
2023-02-27T09:41:31.771Z,101037.66
2023-02-27T09:46:35.387Z,101037.70
2023-02-27T09:51:39.005Z,101045.24
2023-02-27T09:56:57.983Z,101051.98
2023-02-27T10:02:19.892Z,101060.41
2023-02-27T10:07:35.021Z,101056.34
2023-02-27T10:12:50.621Z,101057.35
2023-02-27T10:18:10.493Z,101052.84
2023-02-27T10:23:51.717Z,101057.13
2023-02-27T10:28:55.336Z,101067.08
2023-02-27T10:34:00.785Z,101069.80
2023-02-27T10:39:12.020Z,101074.05
2023-02-27T10:44:18.932Z,101072.32
2023-02-27T10:49:22.716Z,101071.67
2023-02-27T10:54:26.343Z,101077.90
2023-02-27T11:00:01.543Z,101085.27
2023-02-27T11:05:21.793Z,101077.81
2023-02-27T11:10:29.298Z,101083.52
2023-02-27T11:15:35.623Z,101087.38
2023-02-27T11:20:43.646Z,101087.29
2023-02-27T11:25:48.146Z,101086.95
2023-02-27T11:31:03.539Z,101090.37
2023-02-27T11:36:08.077Z,101086.27
2023-02-27T11:41:12.003Z,101080.09
2023-02-27T11:46:39.396Z,101080.23
2023-02-27T11:51:51.497Z,101078.10
2023-02-27T11:57:05.000Z,101070.59
2023-02-27T12:02:23.377Z,101072.02
2023-02-27T12:07:36.347Z,101072.13
2023-02-27T12:13:36.395Z,101074.77
2023-02-27T12:19:18.730Z,101075.52
2023-02-27T12:24:47.318Z,101075.39
2023-02-27T12:30:17.452Z,101074.27
2023-02-27T12:35:33.522Z,101080.77
2023-02-27T12:40:43.119Z,101079.66
2023-02-27T12:45:49.132Z,101088.08
2023-02-27T12:51:17.381Z,101082.71
2023-02-27T12:56:23.265Z,101090.18
2023-02-27T13:01:29.550Z,101097.14
2023-02-27T13:06:46.059Z,101100.59
2023-02-27T13:11:54.910Z,101095.52
2023-02-27T13:17:27.192Z,101091.66
2023-02-27T13:22:45.255Z,101099.84
2023-02-27T13:28:00.540Z,101102.85
2023-02-27T13:33:22.776Z,101105.02
2023-02-27T13:38:59.393Z,101099.65
2023-02-27T13:44:21.352Z,101114.17
2023-02-27T13:49:30.228Z,101114.08
2023-02-27T13:54:40.457Z,101111.52
2023-02-27T13:59:53.624Z,101110.92
2023-02-27T14:05:01.079Z,101110.80
2023-02-27T14:10:11.714Z,101115.61
2023-02-27T14:15:18.169Z,101117.72
2023-02-27T14:20:31.111Z,101120.52
2023-02-27T14:25:41.575Z,101120.06
2023-02-27T14:30:56.276Z,101123.58
2023-02-27T14:36:04.894Z,101129.83
2023-02-27T14:41:33.294Z,101141.39
2023-02-27T14:46:39.586Z,101141.46
2023-02-27T14:51:43.598Z,101147.15
2023-02-27T14:56:57.355Z,101143.20
2023-02-27T15:02:04.521Z,101144.95
2023-02-27T15:07:24.879Z,101155.14
2023-02-27T15:12:29.100Z,101158.56
2023-02-27T15:17:44.090Z,101159.16
2023-02-27T15:22:47.327Z,101162.83
2023-02-27T15:27:50.816Z,101164.95
2023-02-27T15:32:55.926Z,101172.14
2023-02-27T15:38:01.327Z,101180.40
2023-02-27T15:43:05.247Z,101179.07
2023-02-27T15:48:18.693Z,101184.20
2023-02-27T15:53:27.595Z,101189.33
2023-02-27T15:58:39.770Z,101190.84
2023-02-27T16:03:45.990Z,101189.46
2023-02-27T16:09:03.243Z,101197.10
2023-02-27T16:14:08.830Z,101198.08
2023-02-27T16:19:32.873Z,101202.73
2023-02-27T16:24:36.143Z,101210.20
2023-02-27T16:29:45.592Z,101215.56
2023-02-27T16:34:49.107Z,101217.09
2023-02-27T16:39:52.562Z,101219.27
2023-02-27T16:44:55.828Z,101221.98
2023-02-27T16:49:59.369Z,101229.46
2023-02-27T16:55:02.551Z,101236.64
2023-02-27T17:00:10.231Z,101243.80
2023-02-27T17:05:15.547Z,101250.53
2023-02-27T17:10:27.879Z,101263.00
2023-02-27T17:15:31.369Z,101269.72
2023-02-27T17:20:34.777Z,101273.42
2023-02-27T17:25:38.089Z,101275.96
2023-02-27T17:30:42.140Z,101286.21
2023-02-27T17:35:45.440Z,101294.21
2023-02-27T17:40:48.841Z,101296.92
2023-02-27T17:45:52.184Z,101301.17
2023-02-27T17:50:55.438Z,101302.16
2023-02-27T17:55:58.778Z,101298.52
2023-02-27T18:01:07.466Z,101308.52
2023-02-27T18:06:10.856Z,101312.55
2023-02-27T18:11:18.630Z,101314.53
2023-02-27T18:16:22.364Z,101314.19
2023-02-27T18:21:25.616Z,101320.07
2023-02-27T18:26:31.977Z,101322.07
2023-02-27T18:31:46.214Z,101324.54
2023-02-27T18:36:49.630Z,101329.39
2023-02-27T18:41:52.833Z,101330.41
2023-02-27T18:46:56.149Z,101335.84
2023-02-27T18:51:59.465Z,101336.14
2023-02-27T18:57:02.870Z,101340.15
2023-02-27T19:02:06.045Z,101343.63
2023-02-27T19:07:10.512Z,101346.04
2023-02-27T19:12:13.930Z,101357.11
2023-02-27T19:17:17.216Z,101359.05
2023-02-27T19:22:21.065Z,101366.91
2023-02-27T19:27:24.589Z,101376.49
2023-02-27T19:32:28.697Z,101373.90
2023-02-27T19:37:32.018Z,101381.52
2023-02-27T19:42:35.337Z,101386.32
2023-02-27T19:47:38.741Z,101391.86
2023-02-27T19:52:42.177Z,101390.23
2023-02-27T19:57:45.484Z,101393.41
2023-02-27T20:02:48.982Z,101405.22
2023-02-27T20:07:53.312Z,101406.11
2023-02-27T20:12:56.448Z,101410.55
2023-02-27T20:17:59.836Z,101409.98
2023-02-27T20:23:03.141Z,101414.36
2023-02-27T20:28:06.455Z,101416.48
2023-02-27T20:33:09.669Z,101418.61
2023-02-27T20:38:17.374Z,101424.91
2023-02-27T20:43:20.787Z,101430.04
2023-02-27T20:48:24.512Z,101429.46
2023-02-27T20:53:28.030Z,101433.44
2023-02-27T20:58:32.053Z,101431.16
2023-02-27T21:03:39.222Z,101433.06
2023-02-27T21:08:45.945Z,101435.95
2023-02-27T21:13:50.387Z,101437.36
2023-02-27T21:18:56.638Z,101434.61
2023-02-27T21:24:00.745Z,101437.83
2023-02-27T21:29:14.242Z,101440.36
2023-02-27T21:34:21.343Z,101441.36
2023-02-27T21:39:28.491Z,101439.08
2023-02-27T21:44:32.332Z,101441.00
2023-02-27T21:49:36.398Z,101445.19
2023-02-27T21:54:39.811Z,101447.22
2023-02-27T21:59:43.325Z,101447.04
2023-02-27T22:04:47.038Z,101452.77
2023-02-27T22:09:52.922Z,101452.05
2023-02-27T22:14:56.320Z,101442.30
2023-02-27T22:19:59.848Z,101444.48
2023-02-27T22:25:03.557Z,101445.50
2023-02-27T22:30:07.749Z,101443.75
2023-02-27T22:35:11.313Z,101439.87
2023-02-27T22:40:18.017Z,101437.22
2023-02-27T22:45:21.514Z,101438.58
2023-02-27T22:50:25.109Z,101443.84
2023-02-27T22:55:28.956Z,101440.33
2023-02-27T23:00:33.900Z,101443.23
2023-02-27T23:05:38.266Z,101447.02
2023-02-27T23:10:42.678Z,101449.88
2023-02-27T23:15:49.153Z,101451.27
2023-02-27T23:20:52.673Z,101454.27
2023-02-27T23:25:57.317Z,101459.28
2023-02-27T23:31:01.551Z,101456.80
2023-02-27T23:36:06.323Z,101456.57
2023-02-27T23:41:10.534Z,101458.30
2023-02-27T23:46:15.162Z,101459.10
2023-02-27T23:51:18.483Z,101459.94
2023-02-27T23:56:24.962Z,101461.68
